sensor_id;sensor_type;location;lat;lon;timestamp;pressure;altitude;pressure_sealevel;temperature;humidity
71559;BME280;59382;43.852;25.952;2022-09-09T00:00:32;101136.38;;;24.87;40.96
71559;BME280;59382;43.852;25.952;2022-09-09T00:03:16;101152.84;;;24.92;40.83
71559;BME280;59382;43.852;25.952;2022-09-09T00:06:28;101166.66;;;24.92;40.82
71559;BME280;59382;43.852;25.952;2022-09-09T00:09:22;101154.31;;;24.85;40.83
71559;BME280;59382;43.852;25.952;2022-09-09T00:12:00;101160.34;;;24.92;40.66
71559;BME280;59382;43.852;25.952;2022-09-09T00:17:12;101154.91;;;24.82;40.57
71559;BME280;59382;43.852;25.952;2022-09-09T00:19:48;101168.09;;;24.90;40.57
71559;BME280;59382;43.852;25.952;2022-09-09T00:22:23;101165.97;;;24.82;40.76
71559;BME280;59382;43.852;25.952;2022-09-09T00:24:54;101171.72;;;24.85;40.84
71559;BME280;59382;43.852;25.952;2022-09-09T00:27:34;101152.09;;;24.63;40.86
71559;BME280;59382;43.852;25.952;2022-09-09T00:32:39;101166.34;;;24.75;40.57
71559;BME280;59382;43.852;25.952;2022-09-09T00:35:18;101184.47;;;24.81;40.71
71559;BME280;59382;43.852;25.952;2022-09-09T00:37:48;101180.63;;;24.77;40.69
71559;BME280;59382;43.852;25.952;2022-09-09T00:40:33;101184.53;;;24.76;41.04
71559;BME280;59382;43.852;25.952;2022-09-09T00:46:03;101168.72;;;24.82;40.83
71559;BME280;59382;43.852;25.952;2022-09-09T00:56:29;101173.84;;;24.93;40.24
71559;BME280;59382;43.852;25.952;2022-09-09T00:59:33;101167.25;;;24.89;40.77
71559;BME280;59382;43.852;25.952;2022-09-09T01:02:28;101171.84;;;24.99;40.40
71559;BME280;59382;43.852;25.952;2022-09-09T01:04:53;101166.91;;;24.96;40.51
71559;BME280;59382;43.852;25.952;2022-09-09T01:07:20;101162.25;;;24.91;40.31
71559;BME280;59382;43.852;25.952;2022-09-09T01:10:07;101174.59;;;24.99;40.45
71559;BME280;59382;43.852;25.952;2022-09-09T01:12:42;101135.50;;;24.92;40.16
71559;BME280;59382;43.852;25.952;2022-09-09T01:15:22;101139.88;;;24.93;40.15
71559;BME280;59382;43.852;25.952;2022-09-09T01:18:10;101149.06;;;24.88;40.29
71559;BME280;59382;43.852;25.952;2022-09-09T01:26:41;101160.09;;;24.88;40.37
71559;BME280;59382;43.852;25.952;2022-09-09T01:29:10;101152.41;;;24.85;40.39
71559;BME280;59382;43.852;25.952;2022-09-09T01:34:14;101133.25;;;24.70;40.29
71559;BME280;59382;43.852;25.952;2022-09-09T01:36:57;101133.34;;;24.60;40.20
71559;BME280;59382;43.852;25.952;2022-09-09T01:39:25;101137.75;;;24.61;40.61
71559;BME280;59382;43.852;25.952;2022-09-09T01:41:52;101140.50;;;24.66;40.50
71559;BME280;59382;43.852;25.952;2022-09-09T01:44:18;101137.75;;;24.66;40.57
71559;BME280;59382;43.852;25.952;2022-09-09T01:46:44;101141.06;;;24.63;40.44
71559;BME280;59382;43.852;25.952;2022-09-09T01:49:10;101141.53;;;24.70;40.27
71559;BME280;59382;43.852;25.952;2022-09-09T01:51:38;101118.97;;;24.63;40.21
71559;BME280;59382;43.852;25.952;2022-09-09T01:54:04;101136.47;;;24.77;40.20
71559;BME280;59382;43.852;25.952;2022-09-09T01:56:48;101121.13;;;24.71;39.96
71559;BME280;59382;43.852;25.952;2022-09-09T01:59:28;101123.81;;;24.76;39.90
71559;BME280;59382;43.852;25.952;2022-09-09T02:02:19;101132.53;;;24.83;40.15
71559;BME280;59382;43.852;25.952;2022-09-09T02:04:51;101130.91;;;24.82;39.86
71559;BME280;59382;43.852;25.952;2022-09-09T02:10:12;101130.03;;;24.87;39.82
71559;BME280;59382;43.852;25.952;2022-09-09T02:12:45;101141.31;;;24.90;39.89
71559;BME280;59382;43.852;25.952;2022-09-09T02:15:20;101133.06;;;24.85;39.79
71559;BME280;59382;43.852;25.952;2022-09-09T02:17:49;101125.44;;;24.77;39.55
71559;BME280;59382;43.852;25.952;2022-09-09T02:20:21;101140.59;;;24.80;39.68
71559;BME280;59382;43.852;25.952;2022-09-09T02:22:50;101132.38;;;24.75;39.64
71559;BME280;59382;43.852;25.952;2022-09-09T02:25:19;101109.69;;;24.54;39.86
71559;BME280;59382;43.852;25.952;2022-09-09T02:27:45;101144.47;;;24.79;39.57
71559;BME280;59382;43.852;25.952;2022-09-09T02:30:13;101144.72;;;24.82;39.50
71559;BME280;59382;43.852;25.952;2022-09-09T02:32:42;101139.78;;;24.79;39.48
71559;BME280;59382;43.852;25.952;2022-09-09T02:35:12;101145.25;;;24.84;39.59
71559;BME280;59382;43.852;25.952;2022-09-09T02:37:40;101142.84;;;24.78;39.84
71559;BME280;59382;43.852;25.952;2022-09-09T02:40:09;101171.88;;;24.94;39.87
71559;BME280;59382;43.852;25.952;2022-09-09T02:42:43;101133.81;;;24.72;40.14
71559;BME280;59382;43.852;25.952;2022-09-09T02:45:12;101171.13;;;24.88;40.46
71559;BME280;59382;43.852;25.952;2022-09-09T02:47:46;101170.13;;;24.79;40.69
71559;BME280;59382;43.852;25.952;2022-09-09T02:50:35;101149.31;;;24.68;40.99
71559;BME280;59382;43.852;25.952;2022-09-09T02:53:22;101142.19;;;24.62;40.92
71559;BME280;59382;43.852;25.952;2022-09-09T02:55:55;101162.00;;;24.69;40.78
71559;BME280;59382;43.852;25.952;2022-09-09T02:58:23;101150.47;;;24.62;40.58
71559;BME280;59382;43.852;25.952;2022-09-09T03:00:50;101147.16;;;24.65;40.51
71559;BME280;59382;43.852;25.952;2022-09-09T03:03:17;101159.69;;;24.76;40.29
71559;BME280;59382;43.852;25.952;2022-09-09T03:05:45;101150.41;;;24.67;40.76
71559;BME280;59382;43.852;25.952;2022-09-09T03:08:11;101154.75;;;24.73;40.68
71559;BME280;59382;43.852;25.952;2022-09-09T03:10:38;101137.44;;;24.68;40.64
71559;BME280;59382;43.852;25.952;2022-09-09T03:13:04;101141.63;;;24.65;40.78
71559;BME280;59382;43.852;25.952;2022-09-09T03:15:31;101141.53;;;24.70;40.87
71559;BME280;59382;43.852;25.952;2022-09-09T03:17:58;101123.44;;;24.59;40.61
71559;BME280;59382;43.852;25.952;2022-09-09T03:20:25;101144.31;;;24.70;40.38
71559;BME280;59382;43.852;25.952;2022-09-09T03:22:52;101142.13;;;24.67;40.16
71559;BME280;59382;43.852;25.952;2022-09-09T03:25:19;101122.38;;;24.55;40.22
71559;BME280;59382;43.852;25.952;2022-09-09T03:27:44;101124.13;;;24.46;40.10
71559;BME280;59382;43.852;25.952;2022-09-09T03:30:10;101124.13;;;24.46;39.77
71559;BME280;59382;43.852;25.952;2022-09-09T03:32:36;101144.44;;;24.55;40.04
71559;BME280;59382;43.852;25.952;2022-09-09T03:35:02;101155.44;;;24.60;40.44
71559;BME280;59382;43.852;25.952;2022-09-09T03:37:28;101156.78;;;24.63;40.51
71559;BME280;59382;43.852;25.952;2022-09-09T03:39:54;101146.03;;;24.61;41.01
71559;BME280;59382;43.852;25.952;2022-09-09T03:42:22;101124.63;;;24.53;41.05
71559;BME280;59382;43.852;25.952;2022-09-09T03:44:48;101147.66;;;24.67;41.20
71559;BME280;59382;43.852;25.952;2022-09-09T03:47:16;101153.16;;;24.67;41.63
71559;BME280;59382;43.852;25.952;2022-09-09T03:49:42;101141.63;;;24.60;41.96
71559;BME280;59382;43.852;25.952;2022-09-09T03:52:08;101157.16;;;24.56;42.10
71559;BME280;59382;43.852;25.952;2022-09-09T03:54:34;101145.03;;;24.52;42.38
71559;BME280;59382;43.852;25.952;2022-09-09T03:57:01;101140.19;;;24.44;42.62
71559;BME280;59382;43.852;25.952;2022-09-09T03:59:29;101148.38;;;24.49;42.65
71559;BME280;59382;43.852;25.952;2022-09-09T04:01:55;101146.19;;;24.46;42.93
71559;BME280;59382;43.852;25.952;2022-09-09T04:04:22;101139.63;;;24.42;42.83
71559;BME280;59382;43.852;25.952;2022-09-09T04:06:48;101151.69;;;24.51;42.95
71559;BME280;59382;43.852;25.952;2022-09-09T04:09:14;101154.47;;;24.46;43.28
71559;BME280;59382;43.852;25.952;2022-09-09T04:12:00;101129.31;;;24.29;43.29
71559;BME280;59382;43.852;25.952;2022-09-09T04:14:26;101152.59;;;24.42;43.36
71559;BME280;59382;43.852;25.952;2022-09-09T04:17:12;101151.25;;;24.39;43.53
71559;BME280;59382;43.852;25.952;2022-09-09T04:19:39;101164.41;;;24.47;43.68
71559;BME280;59382;43.852;25.952;2022-09-09T04:22:08;101155.06;;;24.43;44.17
71559;BME280;59382;43.852;25.952;2022-09-09T04:24:46;101162.75;;;24.46;44.58
71559;BME280;59382;43.852;25.952;2022-09-09T04:27:14;101152.00;;;24.45;44.75
71559;BME280;59382;43.852;25.952;2022-09-09T04:29:40;101156.66;;;24.49;44.42
71559;BME280;59382;43.852;25.952;2022-09-09T04:32:11;101156.06;;;24.52;44.83
71559;BME280;59382;43.852;25.952;2022-09-09T04:34:39;101159.94;;;24.51;45.12
71559;BME280;59382;43.852;25.952;2022-09-09T04:37:13;101154.47;;;24.46;45.20
71559;BME280;59382;43.852;25.952;2022-09-09T04:39:39;101152.84;;;24.45;45.55
71559;BME280;59382;43.852;25.952;2022-09-09T04:42:05;101148.16;;;24.46;45.51
71559;BME280;59382;43.852;25.952;2022-09-09T04:44:30;101154.44;;;24.51;45.68
71559;BME280;59382;43.852;25.952;2022-09-09T04:46:56;101151.72;;;24.46;45.77
71559;BME280;59382;43.852;25.952;2022-09-09T04:49:25;101163.84;;;24.50;45.80
71559;BME280;59382;43.852;25.952;2022-09-09T04:51:55;101164.31;;;24.57;45.59
71559;BME280;59382;43.852;25.952;2022-09-09T04:54:24;101161.25;;;24.59;45.84
71559;BME280;59382;43.852;25.952;2022-09-09T04:56:50;101165.34;;;24.61;45.41
71559;BME280;59382;43.852;25.952;2022-09-09T04:59:16;101149.38;;;24.58;45.48
71559;BME280;59382;43.852;25.952;2022-09-09T05:01:42;101153.75;;;24.64;45.45
71559;BME280;59382;43.852;25.952;2022-09-09T05:04:08;101160.81;;;24.75;45.27
71559;BME280;59382;43.852;25.952;2022-09-09T05:06:36;101160.69;;;24.85;45.03
71559;BME280;59382;43.852;25.952;2022-09-09T05:09:02;101164.97;;;24.96;44.91
71559;BME280;59382;43.852;25.952;2022-09-09T05:11:29;101147.28;;;24.97;44.68
71559;BME280;59382;43.852;25.952;2022-09-09T05:13:58;101139.97;;;25.07;44.57
71559;BME280;59382;43.852;25.952;2022-09-09T05:16:24;101155.66;;;25.30;43.76
71559;BME280;59382;43.852;25.952;2022-09-09T05:18:50;101158.22;;;25.45;43.27
71559;BME280;59382;43.852;25.952;2022-09-09T05:21:19;101171.34;;;25.71;42.43
71559;BME280;59382;43.852;25.952;2022-09-09T05:23:48;101146.53;;;25.85;42.39
71559;BME280;59382;43.852;25.952;2022-09-09T05:26:20;101160.41;;;26.17;41.81
71559;BME280;59382;43.852;25.952;2022-09-09T05:28:46;101144.47;;;26.41;41.87
71559;BME280;59382;43.852;25.952;2022-09-09T05:31:19;101170.75;;;26.84;41.39
71559;BME280;59382;43.852;25.952;2022-09-09T05:33:46;101155.34;;;27.05;40.59
71559;BME280;59382;43.852;25.952;2022-09-09T05:36:21;101150.28;;;27.34;40.60
71559;BME280;59382;43.852;25.952;2022-09-09T05:38:48;101145.41;;;27.53;40.18
71559;BME280;59382;43.852;25.952;2022-09-09T05:41:15;101168.28;;;27.94;39.36
71559;BME280;59382;43.852;25.952;2022-09-09T05:43:41;101146.81;;;28.08;38.75
71559;BME280;59382;43.852;25.952;2022-09-09T05:46:11;101149.16;;;28.45;38.08
71559;BME280;59382;43.852;25.952;2022-09-09T05:48:41;101154.00;;;28.71;37.67
71559;BME280;59382;43.852;25.952;2022-09-09T05:51:09;101124.66;;;28.87;36.97
71559;BME280;59382;43.852;25.952;2022-09-09T05:53:49;101133.25;;;29.16;36.75
71559;BME280;59382;43.852;25.952;2022-09-09T05:56:20;101131.47;;;29.37;36.02
71559;BME280;59382;43.852;25.952;2022-09-09T05:58:48;101131.94;;;29.56;35.87
71559;BME280;59382;43.852;25.952;2022-09-09T06:01:18;101140.97;;;29.78;35.91
71559;BME280;59382;43.852;25.952;2022-09-09T06:03:48;101127.03;;;29.87;35.52
71559;BME280;59382;43.852;25.952;2022-09-09T06:06:16;101138.47;;;30.11;35.04
71559;BME280;59382;43.852;25.952;2022-09-09T06:08:53;101129.44;;;30.22;34.62
71559;BME280;59382;43.852;25.952;2022-09-09T06:11:27;101116.47;;;30.35;34.32
71559;BME280;59382;43.852;25.952;2022-09-09T06:13:56;101119.03;;;30.49;34.25
71559;BME280;59382;43.852;25.952;2022-09-09T06:16:25;101114.88;;;30.63;34.11
71559;BME280;59382;43.852;25.952;2022-09-09T06:18:53;101116.63;;;30.76;34.15
71559;BME280;59382;43.852;25.952;2022-09-09T06:21:54;101108.59;;;30.75;33.96
71559;BME280;59382;43.852;25.952;2022-09-09T06:24:25;101126.69;;;30.89;33.38
71559;BME280;59382;43.852;25.952;2022-09-09T06:27:22;101130.13;;;30.95;33.18
71559;BME280;59382;43.852;25.952;2022-09-09T06:30:04;101147.13;;;31.02;33.04
71559;BME280;59382;43.852;25.952;2022-09-09T06:33:13;101148.25;;;31.09;33.44
71559;BME280;59382;43.852;25.952;2022-09-09T06:35:52;101141.13;;;31.20;33.22
71559;BME280;59382;43.852;25.952;2022-09-09T06:38:21;101139.59;;;31.31;33.00
71559;BME280;59382;43.852;25.952;2022-09-09T06:40:59;101135.69;;;31.44;32.59
71559;BME280;59382;43.852;25.952;2022-09-09T06:43:25;101111.75;;;31.43;32.80
71559;BME280;59382;43.852;25.952;2022-09-09T06:46:15;101140.25;;;31.69;32.35
71559;BME280;59382;43.852;25.952;2022-09-09T06:48:43;101127.59;;;31.72;32.17
71559;BME280;59382;43.852;25.952;2022-09-09T06:51:50;101129.16;;;31.81;32.03
71559;BME280;59382;43.852;25.952;2022-09-09T06:54:17;101127.44;;;31.89;31.88
71559;BME280;59382;43.852;25.952;2022-09-09T06:56:47;101115.59;;;31.92;31.64
71559;BME280;59382;43.852;25.952;2022-09-09T06:59:15;101144.28;;;32.13;31.65
71559;BME280;59382;43.852;25.952;2022-09-09T07:01:42;101139.50;;;32.13;31.90
71559;BME280;59382;43.852;25.952;2022-09-09T07:04:15;101119.72;;;32.06;31.49
71559;BME280;59382;43.852;25.952;2022-09-09T07:06:47;101131.09;;;32.01;31.46
71559;BME280;59382;43.852;25.952;2022-09-09T07:09:50;101141.09;;;32.02;31.53
71559;BME280;59382;43.852;25.952;2022-09-09T07:12:52;101148.00;;;32.05;31.27
71559;BME280;59382;43.852;25.952;2022-09-09T07:15:18;101143.34;;;32.09;30.88
71559;BME280;59382;43.852;25.952;2022-09-09T07:17:44;101111.75;;;31.96;31.21
71559;BME280;59382;43.852;25.952;2022-09-09T07:20:19;101123.59;;;32.14;31.16
71559;BME280;59382;43.852;25.952;2022-09-09T07:22:45;101118.09;;;32.17;31.02
71559;BME280;59382;43.852;25.952;2022-09-09T07:25:14;101133.88;;;32.34;30.95
71559;BME280;59382;43.852;25.952;2022-09-09T07:27:50;101122.84;;;32.38;30.65
71559;BME280;59382;43.852;25.952;2022-09-09T07:30:19;101132.84;;;32.51;30.17
71559;BME280;59382;43.852;25.952;2022-09-09T07:32:44;101123.63;;;32.38;30.81
71559;BME280;59382;43.852;25.952;2022-09-09T07:35:10;101131.22;;;32.50;30.68
71559;BME280;59382;43.852;25.952;2022-09-09T07:37:37;101129.50;;;32.57;30.29
71559;BME280;59382;43.852;25.952;2022-09-09T07:40:03;101131.69;;;32.64;30.23
71559;BME280;59382;43.852;25.952;2022-09-09T07:42:30;101130.56;;;32.65;30.26
71559;BME280;59382;43.852;25.952;2022-09-09T07:44:58;101135.66;;;32.63;30.44
71559;BME280;59382;43.852;25.952;2022-09-09T07:47:24;101141.13;;;32.59;30.34
71559;BME280;59382;43.852;25.952;2022-09-09T07:49:50;101155.22;;;32.51;30.73
71559;BME280;59382;43.852;25.952;2022-09-09T07:52:16;101149.03;;;32.45;30.35
71559;BME280;59382;43.852;25.952;2022-09-09T07:54:48;101161.63;;;32.51;30.56
71559;BME280;59382;43.852;25.952;2022-09-09T07:57:20;101148.44;;;32.52;30.51
71559;BME280;59382;43.852;25.952;2022-09-09T07:59:49;101127.97;;;32.48;30.72
71559;BME280;59382;43.852;25.952;2022-09-09T08:02:15;101134.97;;;32.66;30.63
71559;BME280;59382;43.852;25.952;2022-09-09T08:04:41;101123.56;;;32.59;30.67
71559;BME280;59382;43.852;25.952;2022-09-09T08:07:07;101129.16;;;32.59;30.61
71559;BME280;59382;43.852;25.952;2022-09-09T08:09:35;101138.31;;;32.47;30.63
71559;BME280;59382;43.852;25.952;2022-09-09T08:12:04;101128.94;;;32.31;30.87
71559;BME280;59382;43.852;25.952;2022-09-09T08:14:30;101140.28;;;32.35;30.74
71559;BME280;59382;43.852;25.952;2022-09-09T08:17:02;101154.00;;;32.40;31.01
71559;BME280;59382;43.852;25.952;2022-09-09T08:19:31;101142.09;;;32.31;31.21
71559;BME280;59382;43.852;25.952;2022-09-09T08:21:59;101152.13;;;32.32;31.25
71559;BME280;59382;43.852;25.952;2022-09-09T08:24:28;101137.50;;;32.35;31.04
71559;BME280;59382;43.852;25.952;2022-09-09T08:27:12;101143.09;;;32.47;30.80
71559;BME280;59382;43.852;25.952;2022-09-09T08:29:41;101117.88;;;32.22;30.69
71559;BME280;59382;43.852;25.952;2022-09-09T08:32:13;101136.75;;;32.26;31.42
71559;BME280;59382;43.852;25.952;2022-09-09T08:34:44;101131.38;;;32.20;30.82
71559;BME280;59382;43.852;25.952;2022-09-09T08:37:10;101133.22;;;32.16;31.42
71559;BME280;59382;43.852;25.952;2022-09-09T08:39:36;101113.81;;;32.20;31.51
71559;BME280;59382;43.852;25.952;2022-09-09T08:53:03;101092.22;;;32.53;30.76
71559;BME280;59382;43.852;25.952;2022-09-09T08:58:25;101081.88;;;32.54;30.85
71559;BME280;59382;43.852;25.952;2022-09-09T09:12:36;101045.56;;;32.42;31.00
71559;BME280;59382;43.852;25.952;2022-09-09T09:15:27;101034.81;;;32.32;31.15
71559;BME280;59382;43.852;25.952;2022-09-09T09:17:55;101077.81;;;32.51;31.28
71559;BME280;59382;43.852;25.952;2022-09-09T09:23:22;101069.75;;;32.38;31.68
71559;BME280;59382;43.852;25.952;2022-09-09T09:25:52;101069.03;;;32.29;31.47
71559;BME280;59382;43.852;25.952;2022-09-09T09:28:26;101070.78;;;32.33;31.46
71559;BME280;59382;43.852;25.952;2022-09-09T09:31:15;101065.97;;;32.34;31.92
71559;BME280;59382;43.852;25.952;2022-09-09T09:33:50;101035.72;;;32.11;31.55
71559;BME280;59382;43.852;25.952;2022-09-09T09:36:45;101056.66;;;32.17;31.77
71559;BME280;59382;43.852;25.952;2022-09-09T09:39:40;101057.59;;;32.21;31.70
71559;BME280;59382;43.852;25.952;2022-09-09T09:42:32;101059.69;;;32.24;31.81
71559;BME280;59382;43.852;25.952;2022-09-09T09:45:41;101052.00;;;32.21;31.31
71559;BME280;59382;43.852;25.952;2022-09-09T09:48:13;101045.28;;;32.22;31.78
71559;BME280;59382;43.852;25.952;2022-09-09T09:50:56;101021.41;;;32.01;31.21
71559;BME280;59382;43.852;25.952;2022-09-09T09:53:31;101023.41;;;32.00;31.66
71559;BME280;59382;43.852;25.952;2022-09-09T09:56:25;101037.81;;;32.02;31.71
71559;BME280;59382;43.852;25.952;2022-09-09T09:58:55;101035.72;;;31.99;31.55
71559;BME280;59382;43.852;25.952;2022-09-09T10:01:24;101049.94;;;32.06;31.84
71559;BME280;59382;43.852;25.952;2022-09-09T10:04:17;101031.97;;;31.95;31.33
71559;BME280;59382;43.852;25.952;2022-09-09T10:07:13;101022.44;;;31.96;30.71
71559;BME280;59382;43.852;25.952;2022-09-09T10:09:45;101033.19;;;32.06;30.76
71559;BME280;59382;43.852;25.952;2022-09-09T10:17:58;101036.31;;;32.05;31.22
71559;BME280;59382;43.852;25.952;2022-09-09T10:20:43;101047.25;;;32.22;31.21
71559;BME280;59382;43.852;25.952;2022-09-09T10:23:24;101053.66;;;32.22;31.30
71559;BME280;59382;43.852;25.952;2022-09-09T10:34:43;101025.84;;;32.14;31.24
71559;BME280;59382;43.852;25.952;2022-09-09T10:37:20;101034.94;;;32.11;31.14
71559;BME280;59382;43.852;25.952;2022-09-09T10:39:59;101006.28;;;31.90;31.44
71559;BME280;59382;43.852;25.952;2022-09-09T10:42:31;101039.13;;;32.17;31.26
71559;BME280;59382;43.852;25.952;2022-09-09T10:45:24;101034.34;;;32.17;31.36
71559;BME280;59382;43.852;25.952;2022-09-09T10:51:01;101038.06;;;32.21;31.66
71559;BME280;59382;43.852;25.952;2022-09-09T10:53:35;101043.41;;;32.27;30.92
71559;BME280;59382;43.852;25.952;2022-09-09T10:56:18;101043.41;;;32.27;31.04
71559;BME280;59382;43.852;25.952;2022-09-09T10:59:00;101041.53;;;32.31;31.27
71559;BME280;59382;43.852;25.952;2022-09-09T11:04:23;101023.78;;;32.35;30.97
71559;BME280;59382;43.852;25.952;2022-09-09T11:06:54;101026.44;;;32.32;31.08
71559;BME280;59382;43.852;25.952;2022-09-09T11:09:24;101010.81;;;32.31;30.76
71559;BME280;59382;43.852;25.952;2022-09-09T11:11:56;101025.53;;;32.40;30.64
71559;BME280;59382;43.852;25.952;2022-09-09T11:14:39;101032.75;;;32.41;30.97
71559;BME280;59382;43.852;25.952;2022-09-09T11:17:15;101022.38;;;32.41;30.81
71559;BME280;59382;43.852;25.952;2022-09-09T11:19:44;101025.53;;;32.40;31.07
71559;BME280;59382;43.852;25.952;2022-09-09T11:22:27;101015.03;;;32.37;30.60
71559;BME280;59382;43.852;25.952;2022-09-09T11:25:10;101019.00;;;32.36;30.95
71559;BME280;59382;43.852;25.952;2022-09-09T11:33:59;101006.63;;;32.24;31.06
71559;BME280;59382;43.852;25.952;2022-09-09T11:42:21;100998.38;;;32.16;31.13
71559;BME280;59382;43.852;25.952;2022-09-09T11:44:54;100974.06;;;32.04;31.13
71559;BME280;59382;43.852;25.952;2022-09-09T11:47:28;100990.34;;;32.14;31.28
71559;BME280;59382;43.852;25.952;2022-09-09T11:50:24;100992.09;;;32.19;30.78
71559;BME280;59382;43.852;25.952;2022-09-09T11:55:41;100983.59;;;32.28;30.98
71559;BME280;59382;43.852;25.952;2022-09-09T12:00:46;100991.97;;;32.28;30.67
71559;BME280;59382;43.852;25.952;2022-09-09T12:03:35;100993.84;;;32.23;31.01
71559;BME280;59382;43.852;25.952;2022-09-09T12:06:11;100986.63;;;32.22;31.13
71559;BME280;59382;43.852;25.952;2022-09-09T12:08:41;100960.59;;;32.06;30.63
71559;BME280;59382;43.852;25.952;2022-09-09T12:11:08;100983.28;;;32.17;31.04
71559;BME280;59382;43.852;25.952;2022-09-09T12:13:37;100981.41;;;32.09;31.08
71559;BME280;59382;43.852;25.952;2022-09-09T12:16:29;100975.00;;;32.08;30.95
71559;BME280;59382;43.852;25.952;2022-09-09T12:19:06;100968.00;;;32.02;31.01
71559;BME280;59382;43.852;25.952;2022-09-09T12:21:54;100969.19;;;32.01;30.89
71559;BME280;59382;43.852;25.952;2022-09-09T12:24:37;100943.94;;;31.86;31.25
71559;BME280;59382;43.852;25.952;2022-09-09T12:30:09;100936.34;;;31.74;31.39
71559;BME280;59382;43.852;25.952;2022-09-09T12:32:39;100941.91;;;31.74;31.10
71559;BME280;59382;43.852;25.952;2022-09-09T12:35:34;100910.28;;;31.58;31.32
71559;BME280;59382;43.852;25.952;2022-09-09T12:38:15;100932.97;;;31.69;30.91
71559;BME280;59382;43.852;25.952;2022-09-09T12:41:03;100941.00;;;31.70;30.81
71559;BME280;59382;43.852;25.952;2022-09-09T12:43:34;100938.91;;;31.79;31.24
71559;BME280;59382;43.852;25.952;2022-09-09T12:46:07;100938.25;;;31.82;31.15
71559;BME280;59382;43.852;25.952;2022-09-09T12:48:40;100922.84;;;31.76;30.90
71559;BME280;59382;43.852;25.952;2022-09-09T12:51:39;100904.38;;;31.72;30.99
71559;BME280;59382;43.852;25.952;2022-09-09T12:54:13;100908.00;;;31.84;30.91
71559;BME280;59382;43.852;25.952;2022-09-09T12:56:45;100911.97;;;31.83;30.80
71559;BME280;59382;43.852;25.952;2022-09-09T12:59:44;100913.91;;;31.83;31.14
71559;BME280;59382;43.852;25.952;2022-09-09T13:02:24;100913.91;;;31.83;30.96
71559;BME280;59382;43.852;25.952;2022-09-09T13:04:52;100914.75;;;31.83;31.46
71559;BME280;59382;43.852;25.952;2022-09-09T13:07:20;100909.66;;;31.85;31.48
71559;BME280;59382;43.852;25.952;2022-09-09T13:09:56;100890.06;;;31.73;31.33
71559;BME280;59382;43.852;25.952;2022-09-09T13:12:32;100896.84;;;31.84;31.00
71559;BME280;59382;43.852;25.952;2022-09-09T13:15:16;100895.34;;;31.87;30.81
71559;BME280;59382;43.852;25.952;2022-09-09T13:17:53;100867.28;;;31.71;30.70
71559;BME280;59382;43.852;25.952;2022-09-09T13:20:21;100883.09;;;31.79;30.56
71559;BME280;59382;43.852;25.952;2022-09-09T13:23:11;100887.41;;;31.89;30.89
71559;BME280;59382;43.852;25.952;2022-09-09T13:25:40;100911.13;;;32.07;30.63
71559;BME280;59382;43.852;25.952;2022-09-09T13:28:22;100885.66;;;31.96;30.50
71559;BME280;59382;43.852;25.952;2022-09-09T13:31:29;100902.41;;;32.08;30.20
71559;BME280;59382;43.852;25.952;2022-09-09T13:34:29;100866.13;;;31.84;30.44
71559;BME280;59382;43.852;25.952;2022-09-09T13:37:22;100899.88;;;32.03;30.76
71559;BME280;59382;43.852;25.952;2022-09-09T13:39:54;100869.41;;;31.86;30.83
71559;BME280;59382;43.852;25.952;2022-09-09T13:48:58;100888.00;;;31.94;30.72
71559;BME280;59382;43.852;25.952;2022-09-09T13:51:36;100848.44;;;31.68;31.25
71559;BME280;59382;43.852;25.952;2022-09-09T13:54:04;100876.84;;;31.82;30.82
71559;BME280;59382;43.852;25.952;2022-09-09T13:56:32;100878.66;;;31.78;30.87
71559;BME280;59382;43.852;25.952;2022-09-09T13:58:58;100883.56;;;31.81;31.26
71559;BME280;59382;43.852;25.952;2022-09-09T14:01:23;100872.16;;;31.74;31.12
71559;BME280;59382;43.852;25.952;2022-09-09T14:03:50;100879.00;;;31.77;30.88
71559;BME280;59382;43.852;25.952;2022-09-09T14:06:16;100870.97;;;31.75;31.03
71559;BME280;59382;43.852;25.952;2022-09-09T14:08:44;100873.31;;;31.73;31.44
71559;BME280;59382;43.852;25.952;2022-09-09T14:11:12;100875.63;;;31.71;31.36
71559;BME280;59382;43.852;25.952;2022-09-09T14:13:38;100881.91;;;31.68;31.18
71559;BME280;59382;43.852;25.952;2022-09-09T14:16:04;100874.94;;;31.62;31.41
71559;BME280;59382;43.852;25.952;2022-09-09T14:18:30;100887.41;;;31.65;31.54
71559;BME280;59382;43.852;25.952;2022-09-09T14:20:55;100874.50;;;31.60;32.21
71559;BME280;59382;43.852;25.952;2022-09-09T14:23:22;100870.31;;;31.54;32.36
71559;BME280;59382;43.852;25.952;2022-09-09T14:25:49;100871.78;;;31.52;32.39
71559;BME280;59382;43.852;25.952;2022-09-09T14:28:16;100882.50;;;31.50;32.84
71559;BME280;59382;43.852;25.952;2022-09-09T14:30:43;100879.59;;;31.46;32.94
71559;BME280;59382;43.852;25.952;2022-09-09T14:33:14;100873.75;;;31.39;32.57
71559;BME280;59382;43.852;25.952;2022-09-09T14:35:41;100877.00;;;31.41;32.82
71559;BME280;59382;43.852;25.952;2022-09-09T14:38:09;100868.88;;;31.36;32.95
71559;BME280;59382;43.852;25.952;2022-09-09T14:40:36;100862.34;;;31.32;32.66
71559;BME280;59382;43.852;25.952;2022-09-09T14:43:03;100873.75;;;31.39;32.59
71559;BME280;59382;43.852;25.952;2022-09-09T14:45:29;100865.03;;;31.29;33.10
71559;BME280;59382;43.852;25.952;2022-09-09T14:47:55;100859.78;;;31.27;32.73
71559;BME280;59382;43.852;25.952;2022-09-09T14:50:22;100867.94;;;31.32;33.23
71559;BME280;59382;43.852;25.952;2022-09-09T14:52:48;100870.72;;;31.32;33.33
71559;BME280;59382;43.852;25.952;2022-09-09T14:55:24;100868.34;;;31.22;33.33